Le Ponant — FGZZ — position and weather

sailwx.info

Track history (hours):
 
Tides and Currents Weather Stations Pressure Air Temp Water Temp Dewpoint Dewpoint Depression Visibility Wind Speed Wind Dir Waves Ship Positions

Le Ponant

Operator: Compangy des Iles du Ponant

Last reported at 2014-Sep-13 17:03 UTC. Time now 2014-Sep-18 07:39 UTC.
Position N 35°55' E 014°32'.

Length 84 m; draft 4.2 m.

Type: Passenger vessel. MMSI: 227186000.

Date/timePositionNaut miles runAvg speedWind from/ knotsBaromVisibWave heightAir tempDewpointWater temp
2014-Sep-13 17:03N 35°55' E 014°32'6 0.5
2014-Sep-13 03:22N 35°60' E 014°37'8 9.9
2014-Sep-13 02:33N 36°07' E 014°43'125 2.6
2014-Sep-11 02:22N 38°05' E 015°31'910.6
2014-Sep-11 01:33N 38°13' E 015°36'7 6.5
2014-Sep-11 00:30N 38°20' E 015°34'1010.7
2014-Sep-10 23:33N 38°20' E 015°21'8311.0
2014-Sep-10 16:04N 38°10' E 013°37'4 7.1
2014-Sep-10 15:33N 38°09' E 013°32'8 7.8
2014-Sep-10 14:32N 38°08' E 013°22'0 0.0
2014-Sep-10 13:29N 38°08' E 013°22'0 0.0
2014-Sep-10 12:32N 38°08' E 013°22'16 0.5
2014-Sep-09 05:07N 38°11' E 013°02'712.0
2014-Sep-09 04:33N 38°15' E 013°09'1211.9
2014-Sep-09 03:33N 38°19' E 013°23'1211.8
2014-Sep-09 02:33N 38°23' E 013°37'135 4.0
2014-Sep-07 16:28N 40°30' E 014°34'  
2014-Sep-03 20:30N 38°11' E 013°41'1010.5
2014-Sep-03 19:33N 38°09' E 013°29'6 5.6
2014-Sep-03 18:30N 38°08' E 013°22'0 0.0
2014-Sep-03 17:33N 38°08' E 013°22'  
Track history (hours):
 
Tides and Currents Weather Stations Pressure Air Temp Water Temp Dewpoint Dewpoint Depression Visibility Wind Speed Wind Dir Waves Ship Positions

Le Ponant

Operator: Compangy des Iles du Ponant

Last reported at 2014-Sep-13 17:03 UTC. Time now 2014-Sep-18 07:39 UTC.
Position N 35°55' E 014°32'.

Length 84 m; draft 4.2 m.

Type: Passenger vessel. MMSI: 227186000.

Date/timePositionNaut miles runAvg speedWind from/ knotsBaromVisibWave heightAir tempDewpointWater temp
2014-Sep-13 17:03N 35°55' E 014°32'6 0.5
2014-Sep-13 03:22N 35°60' E 014°37'8 9.9
2014-Sep-13 02:33N 36°07' E 014°43'125 2.6
2014-Sep-11 02:22N 38°05' E 015°31'910.6
2014-Sep-11 01:33N 38°13' E 015°36'7 6.5
2014-Sep-11 00:30N 38°20' E 015°34'1010.7
2014-Sep-10 23:33N 38°20' E 015°21'8311.0
2014-Sep-10 16:04N 38°10' E 013°37'4 7.1
2014-Sep-10 15:33N 38°09' E 013°32'8 7.8
2014-Sep-10 14:32N 38°08' E 013°22'0 0.0
2014-Sep-10 13:29N 38°08' E 013°22'0 0.0
2014-Sep-10 12:32N 38°08' E 013°22'16 0.5
2014-Sep-09 05:07N 38°11' E 013°02'712.0
2014-Sep-09 04:33N 38°15' E 013°09'1211.9
2014-Sep-09 03:33N 38°19' E 013°23'1211.8
2014-Sep-09 02:33N 38°23' E 013°37'135 4.0
2014-Sep-07 16:28N 40°30' E 014°34'  
2014-Sep-03 20:30N 38°11' E 013°41'1010.5
2014-Sep-03 19:33N 38°09' E 013°29'6 5.6
2014-Sep-03 18:30N 38°08' E 013°22'0 0.0
2014-Sep-03 17:33N 38°08' E 013°22'  

Dump ship's entire track history